createdAt,value
2022-12-06T00:04:34.228Z,6.34
2022-12-06T00:10:05.738Z,6.42
2022-12-06T00:15:37.480Z,6.44
2022-12-06T00:21:09.172Z,6.42
2022-12-06T00:26:40.900Z,6.37
2022-12-06T00:32:17.727Z,6.3
2022-12-06T00:37:44.356Z,6.26
2022-12-06T00:43:16.081Z,6.15
2022-12-06T00:48:48.012Z,6.11
2022-12-06T00:54:23.981Z,5.98
2022-12-06T00:59:55.616Z,5.9
2022-12-06T01:05:27.497Z,5.84
2022-12-06T01:10:59.016Z,5.82
2022-12-06T01:16:30.744Z,5.89
2022-12-06T01:22:02.459Z,5.85
2022-12-06T01:27:34.345Z,5.9
2022-12-06T01:33:05.897Z,5.95
2022-12-06T01:38:37.629Z,5.95
2022-12-06T01:44:09.529Z,5.93
2022-12-06T01:49:41.158Z,5.94
2022-12-06T01:55:17.197Z,5.89
2022-12-06T02:00:49.012Z,5.97
2022-12-06T02:06:21.148Z,5.99
2022-12-06T02:11:52.546Z,5.98
2022-12-06T02:17:24.108Z,6.01
2022-12-06T02:22:55.879Z,6.14
2022-12-06T02:28:27.591Z,6.13
2022-12-06T02:33:59.325Z,6.15
2022-12-06T02:39:31.045Z,6.1
2022-12-06T02:45:02.724Z,6.14
2022-12-06T02:50:34.602Z,6.16
2022-12-06T02:56:10.549Z,6.15
2022-12-06T03:01:42.449Z,6.2
2022-12-06T03:07:14.029Z,6.25
2022-12-06T03:12:45.945Z,6.31
2022-12-06T03:18:17.677Z,6.25
2022-12-06T03:23:49.278Z,6.25
2022-12-06T03:29:20.898Z,6.2
2022-12-06T03:34:52.801Z,6.21
2022-12-06T03:40:24.452Z,6.23
2022-12-06T03:45:56.281Z,6.22
2022-12-06T03:51:27.947Z,6.23
2022-12-06T03:57:06.062Z,6.28
2022-12-06T04:02:37.584Z,6.27
2022-12-06T04:08:09.399Z,6.17
2022-12-06T04:13:41.221Z,6.17
2022-12-06T04:19:12.917Z,6.19
2022-12-06T04:24:44.503Z,6.18
2022-12-06T04:30:16.233Z,6.28
2022-12-06T04:35:48.138Z,6.18
2022-12-06T04:41:19.718Z,6.2
2022-12-06T04:46:51.668Z,6.26
2022-12-06T04:52:23.149Z,6.27
2022-12-06T04:57:59.265Z,6.21
2022-12-06T05:03:31.035Z,6.22
2022-12-06T05:09:02.834Z,6.27
2022-12-06T05:14:34.465Z,6.28
2022-12-06T05:20:06.185Z,6.21
2022-12-06T05:25:38.017Z,6.32
2022-12-06T05:31:09.756Z,6.29
2022-12-06T05:36:41.347Z,6.3
2022-12-06T05:42:16.137Z,6.34
2022-12-06T05:47:45.109Z,6.31
2022-12-06T05:53:16.486Z,6.32
2022-12-06T05:58:52.740Z,6.34
2022-12-06T06:04:24.320Z,6.31
2022-12-06T06:09:56.312Z,6.42
2022-12-06T06:15:27.749Z,6.37
2022-12-06T06:20:59.624Z,6.26
2022-12-06T06:26:31.441Z,6.37
2022-12-06T06:32:02.961Z,6.39
2022-12-06T06:37:34.664Z,6.39
2022-12-06T06:43:07.056Z,6.39
2022-12-06T06:48:38.192Z,6.32
2022-12-06T06:54:09.965Z,6.36
2022-12-06T06:59:45.919Z,6.24
2022-12-06T07:05:18.114Z,6.24
2022-12-06T07:10:49.511Z,6.31
2022-12-06T07:16:21.426Z,6.16
2022-12-06T07:21:52.913Z,6.22
2022-12-06T07:27:24.629Z,6.34
2022-12-06T07:32:56.538Z,6.24
2022-12-06T07:38:28.102Z,6.17
2022-12-06T07:43:59.920Z,6.32
2022-12-06T07:49:31.754Z,6.34
2022-12-06T07:55:03.305Z,6.16
2022-12-06T08:00:39.526Z,6.03
2022-12-06T08:06:11.243Z,6.01
2022-12-06T08:11:42.788Z,6.03
2022-12-06T08:17:14.681Z,6.16
2022-12-06T08:22:46.744Z,6.16
2022-12-06T08:28:18.106Z,6.28
2022-12-06T08:33:49.927Z,6.01
2022-12-06T08:39:22.139Z,6.01
2022-12-06T08:44:53.315Z,5.79
2022-12-06T08:50:24.851Z,5.88
2022-12-06T08:56:00.591Z,6.0
2022-12-06T09:01:37.628Z,6.05
2022-12-06T09:07:07.471Z,6.02
2022-12-06T09:12:36.297Z,6.03
2022-12-06T09:18:07.900Z,6.03
2022-12-06T09:23:39.779Z,6.13
2022-12-06T09:29:13.880Z,6.01
2022-12-06T09:34:43.137Z,5.81
2022-12-06T09:40:15.005Z,5.65
2022-12-06T09:45:46.577Z,5.53
2022-12-06T09:51:18.989Z,5.5
2022-12-06T09:56:50.006Z,5.46
2022-12-06T10:02:28.190Z,5.8
2022-12-06T10:08:00.127Z,5.6
2022-12-06T10:13:31.568Z,5.55
2022-12-06T10:19:03.984Z,5.22
2022-12-06T10:24:35.082Z,5.32
2022-12-06T10:30:06.903Z,5.6
2022-12-06T10:35:38.452Z,5.55
2022-12-06T10:41:10.272Z,5.35
2022-12-06T10:46:42.313Z,5.44
2022-12-06T10:52:13.619Z,5.47
2022-12-06T10:57:45.279Z,5.59
2022-12-06T11:03:22.352Z,5.32
2022-12-06T11:08:53.368Z,5.45
2022-12-06T11:14:24.918Z,5.53
2022-12-06T11:19:56.946Z,5.55
2022-12-06T11:25:28.613Z,5.47
2022-12-06T11:31:00.168Z,5.78
2022-12-06T11:36:32.386Z,5.54
2022-12-06T11:42:03.649Z,5.58
2022-12-06T11:47:35.443Z,5.39
2022-12-06T11:53:08.150Z,5.17
2022-12-06T11:58:39.321Z,5.21
2022-12-06T12:04:18.226Z,5.19
2022-12-06T12:09:49.421Z,4.99
2022-12-06T12:15:20.981Z,4.88
2022-12-06T12:20:53.376Z,5.08
2022-12-06T12:26:24.291Z,4.97
2022-12-06T12:31:56.060Z,5.02
2022-12-06T12:37:27.961Z,5.01
2022-12-06T12:42:59.417Z,4.91
2022-12-06T12:48:31.109Z,4.94
2022-12-06T12:54:02.853Z,5.05
2022-12-06T12:59:34.662Z,5.24
2022-12-06T13:05:31.848Z,4.93
2022-12-06T13:10:42.437Z,5.05
2022-12-06T13:16:14.408Z,5.01
2022-12-06T13:21:46.038Z,5.08
2022-12-06T13:27:17.592Z,4.95
2022-12-06T13:32:49.284Z,5.16
2022-12-06T13:38:26.275Z,5.12
2022-12-06T13:43:52.706Z,5.17
2022-12-06T13:49:24.682Z,4.96
2022-12-06T13:54:56.369Z,5.12
2022-12-06T14:00:28.179Z,5.23
2022-12-06T14:06:07.697Z,5.16
2022-12-06T14:11:39.831Z,5.03
2022-12-06T14:17:07.710Z,5.08
2022-12-06T14:22:39.295Z,5.26
2022-12-06T14:28:10.990Z,5.21
2022-12-06T14:33:42.878Z,5.25
2022-12-06T14:39:14.474Z,5.19
2022-12-06T14:44:46.221Z,5.45
2022-12-06T14:50:17.916Z,5.57
2022-12-06T14:55:49.748Z,5.26
2022-12-06T15:01:21.487Z,5.46
2022-12-06T15:06:57.547Z,5.36
2022-12-06T15:12:29.219Z,5.48
2022-12-06T15:18:01.046Z,5.77
2022-12-06T15:23:32.745Z,5.66
2022-12-06T15:29:04.642Z,5.83
2022-12-06T15:34:36.163Z,5.79
2022-12-06T15:40:08.099Z,5.62
2022-12-06T15:45:39.626Z,5.66
2022-12-06T15:51:13.030Z,5.81
2022-12-06T15:56:43.075Z,5.94
2022-12-06T16:02:14.944Z,5.6
2022-12-06T16:07:53.080Z,5.6
2022-12-06T16:13:24.624Z,5.64
2022-12-06T16:18:56.499Z,5.87
2022-12-06T16:24:28.089Z,5.85
2022-12-06T16:30:00.388Z,5.49
2022-12-06T16:35:31.657Z,5.59
2022-12-06T16:41:05.227Z,5.7
2022-12-06T16:46:35.638Z,5.68
2022-12-06T16:52:06.698Z,5.69
2022-12-06T16:57:38.668Z,5.73
2022-12-06T17:03:10.225Z,5.8
2022-12-06T17:08:47.097Z,5.99
2022-12-06T17:14:18.056Z,5.97
2022-12-06T17:19:50.221Z,6.0
2022-12-06T17:25:21.504Z,5.91
2022-12-06T17:30:53.243Z,5.81
2022-12-06T17:36:25.658Z,5.82
2022-12-06T17:41:57.160Z,5.84
2022-12-06T17:47:28.451Z,5.72
2022-12-06T17:53:00.121Z,5.81
2022-12-06T17:58:31.879Z,5.84
2022-12-06T18:04:04.391Z,5.81
2022-12-06T18:09:40.468Z,5.85
2022-12-06T18:15:12.275Z,5.64
2022-12-06T18:20:43.591Z,5.87
2022-12-06T18:26:15.599Z,6.01
2022-12-06T18:31:47.222Z,6.08
2022-12-06T18:37:19.964Z,6.17
2022-12-06T18:42:51.749Z,6.03
2022-12-06T18:48:23.076Z,5.96
2022-12-06T18:53:54.964Z,6.08
2022-12-06T18:59:27.865Z,6.13
2022-12-06T19:04:59.043Z,6.04
2022-12-06T19:10:38.649Z,6.05
2022-12-06T19:16:10.234Z,6.0
2022-12-06T19:21:41.913Z,5.9
2022-12-06T19:27:13.628Z,5.96
2022-12-06T19:32:45.548Z,6.09
2022-12-06T19:38:17.077Z,6.11
2022-12-06T19:43:48.888Z,5.98
2022-12-06T19:49:20.756Z,5.93
2022-12-06T19:54:52.441Z,5.98
2022-12-06T20:00:24.233Z,5.98
2022-12-06T20:05:56.132Z,5.82
2022-12-06T20:11:32.009Z,5.95
2022-12-06T20:17:03.570Z,5.8
2022-12-06T20:22:35.247Z,5.95
2022-12-06T20:28:11.956Z,5.82
2022-12-06T20:33:38.813Z,5.61
2022-12-06T20:39:10.597Z,5.62
2022-12-06T20:44:42.588Z,5.62
2022-12-06T20:50:13.823Z,5.5
2022-12-06T20:55:45.760Z,5.37
2022-12-06T21:01:17.510Z,5.49
2022-12-06T21:06:49.060Z,5.41
2022-12-06T21:12:26.442Z,5.73
2022-12-06T21:17:56.826Z,5.39
2022-12-06T21:23:28.689Z,5.45
2022-12-06T21:29:00.381Z,5.54
2022-12-06T21:34:32.249Z,5.5
2022-12-06T21:40:04.260Z,5.38
2022-12-06T21:45:35.640Z,5.53
2022-12-06T21:51:07.468Z,5.45
2022-12-06T21:56:39.332Z,5.34
2022-12-06T22:02:11.015Z,5.62
2022-12-06T22:07:43.070Z,5.3
2022-12-06T22:13:18.825Z,5.59
2022-12-06T22:18:50.484Z,5.51
2022-12-06T22:24:22.200Z,5.57
2022-12-06T22:29:53.947Z,5.39
2022-12-06T22:35:25.803Z,5.3
2022-12-06T22:40:57.415Z,5.52
2022-12-06T22:46:29.146Z,5.68
2022-12-06T22:52:00.986Z,5.52
2022-12-06T22:57:32.572Z,5.38
2022-12-06T23:03:04.266Z,5.39
2022-12-06T23:08:36.186Z,5.39
2022-12-06T23:14:12.212Z,5.5
2022-12-06T23:19:43.836Z,5.59
2022-12-06T23:25:15.764Z,5.65
2022-12-06T23:30:47.281Z,5.45
2022-12-06T23:36:19.171Z,5.6
2022-12-06T23:41:50.889Z,5.55
2022-12-06T23:47:22.449Z,5.58
2022-12-06T23:52:54.095Z,5.48
2022-12-06T23:58:25.861Z,5.23
